• Join FlightAware (Why Join?)
  • Login
  • US Flag 
06:04AM EDT


 

Airport Tracker/Info


-or-


 

Live Flight TrackerFlight Track Log ✈ N551US ✈ 16-Dec-2013 ✈ KLCQ - KGAD

Flight Track Log - Related Links

Times and Time Zones

All times are in EST time to prevent confusion due to time zone crossing. See the N551US flight status page for this flight to view local times or setup timezone preferences in your user account.

Time Position Orientation Groundspeed Altitude Reporting Facility
EST Latitude Longitude Course Direction KTS MPH feet Rate Location/Type
09:50AM 30.2161 -82.5633 316° Northwest 179 206 1,600  Level Jacksonville Center
09:51AM 30.2494 -82.5944 321° Northwest 167 192 2,300 720 Climbing Jacksonville Center
09:52AM 30.2767 -82.6256 315° West 148 170 3,100 780 Climbing Jacksonville Center
09:53AM 30.3578 -82.7316 316° Northwest  Level Estimated
09:53AM 30.3039 -82.6567 315° West 143 165 3,900  Level Jacksonville Center
09:54AM 30.3331 -82.6856 319° Northwest 143 165 4,700 720 Climbing Jacksonville Center
09:55AM 30.3625 -82.7144 320° Northwest 143 165 5,400 720 Climbing Jacksonville Center
09:56AM 30.3792 -82.7361 312° West 133 153 6,000 660 Climbing Jacksonville Center
09:56AM 30.3897 -82.7433 329° Northwest 143 165 6,100 600 Climbing Jacksonville Center
09:57AM 30.4022 -82.7600 311° West 131 151 6,500 660 Climbing Jacksonville Center
09:57AM 30.4147 -82.7722 320° Northwest 138 159 6,800 660 Climbing Jacksonville Center
09:58AM 30.4272 -82.7867 315° West 128 147 7,200 660 Climbing Jacksonville Center
09:58AM 30.4419 -82.7986 325° Northwest 138 159 7,500 540 Climbing Jacksonville Center
09:59AM 30.4544 -82.8156 311° West 127 146 7,800 360 Climbing Jacksonville Center
09:59AM 30.4692 -82.8275 325° Northwest 132 152 7,900 180 Climbing Jacksonville Center
10:00AM 30.4817 -82.8444 311° West 137 158 8,000 60 Climbing Jacksonville Center
10:00AM 30.5003 -82.8611 322° Northwest 140 161 8,000  Level Jacksonville Center
10:01AM 30.5150 -82.8806 311° West 163 188 8,000  Level Jacksonville Center
10:01AM 30.5339 -82.8950 327° Northwest 145 167 8,000  Level Jacksonville Center
10:02AM 30.5506 -82.9192 309° West 168 193 8,000  Level Jacksonville Center
10:02AM 30.5650 -82.9336 319° Northwest 151 174 8,000  Level Jacksonville Center
10:03AM 30.5839 -82.9553 315° West 167 192 8,000  Level Jacksonville Center
10:03AM 30.6006 -82.9697 323° Northwest 157 181 8,000  Level Jacksonville Center
10:04AM 30.6172 -82.9939 309° West 165 190 8,000  Level Jacksonville Center
10:04AM 30.6361 -83.0036 336° Northwest 162 186 8,000  Level Jacksonville Center
10:05AM 30.6506 -83.0278 305° West 163 188 8,000  Level Jacksonville Center
10:05AM 30.6672 -83.0400 328° Northwest 162 186 8,000  Level Jacksonville Center
10:06AM 30.6881 -83.0664 313° West 162 186 8,000  Level Jacksonville Center
10:07AM 30.7236 -83.1053 317° Northwest 164 189 8,000  Level Jacksonville Center
10:08AM 30.7547 -83.1392 317° Northwest 163 188 8,000  Level Jacksonville Center
10:09AM 30.7903 -83.1781 317° Northwest 163 188 8,000  Level Jacksonville Center
10:10AM 30.8236 -83.2119 319° Northwest 163 188 8,000  Level Jacksonville Center
10:11AM 30.8528 -83.2433 317° Northwest 163 188 8,000  Level Jacksonville Center
10:12AM 30.8881 -83.2822 317° Northwest 161 185 8,000  Level Jacksonville Center
10:13AM 30.9194 -83.3164 317° Northwest 161 185 8,000  Level Jacksonville Center
10:14AM 30.9547 -83.3528 319° Northwest 161 185 8,000  Level Jacksonville Center
10:15AM 30.9797 -83.3892 309° West 160 184 8,000  Level Jacksonville Center
10:16AM 31.0086 -83.4331 308° West 159 183 8,000  Level Jacksonville Center
10:17AM 31.0336 -83.4792 302° West 161 185 8,000  Level Jacksonville Center
10:18AM 31.0647 -83.5158 315° West 166 191 8,000  Level Jacksonville Center
10:18AM 31.0708 -83.5208 325° Northwest 161 185 8,000  Level Jacksonville Center
10:19AM 31.1000 -83.5500 319° Northwest 164 189 8,000  Level Jacksonville Center
10:19AM 31.1042 -83.5550 314° West 161 185 8,000  Level Jacksonville Center
10:20AM 31.1372 -83.5942 315° West 161 185 8,000  Level Jacksonville Center
10:21AM 31.1686 -83.6258 319° Northwest 163 188 8,000  Level Jacksonville Center
10:21AM 31.1728 -83.6258 360° North 161 185 8,000  Level Jacksonville Center
10:22AM 31.2039 -83.6600 317° Northwest 161 185 8,000  Level Jacksonville Center
10:23AM 31.2369 -83.6969 316° Northwest 189 217 8,000  Level Jacksonville Center
10:24AM 31.2700 -83.7336 317° Northwest 178 205 8,000  Level Jacksonville Center
10:25AM 31.3053 -83.7678 320° Northwest 173 199 8,000  Level Jacksonville Center
10:26AM 31.3386 -83.8022 319° Northwest 167 192 8,000  Level Jacksonville Center
10:27AM 31.3717 -83.8367 318° Northwest 167 192 8,000  Level Jacksonville Center
10:28AM 31.4069 -83.8736 318° Northwest 167 192 8,000  Level Jacksonville Center
10:29AM 31.4381 -83.9103 315° West 167 192 8,000  Level Jacksonville Center
10:30AM 31.4731 -83.9450 320° Northwest 167 192 8,000  Level Jacksonville Center
10:31AM 31.5083 -83.9819 318° Northwest 167 192 8,000  Level Jacksonville Center
10:32AM 31.5394 -84.0139 319° Northwest 167 192 8,000  Level Jacksonville Center
10:33AM 31.5744 -84.0508 318° Northwest 167 192 8,000  Level Jacksonville Center
10:34AM 31.6078 -84.0856 318° Northwest 167 192 8,000  Level Jacksonville Center
10:35AM 31.6428 -84.1225 318° Northwest 167 192 8,000 -60 Level Jacksonville Center
10:36AM 31.6758 -84.1594 316° Northwest 167 192 7,900 -60 Descending Jacksonville Center
10:37AM 31.7108 -84.1942 320° Northwest 167 192 7,900  Level Jacksonville Center
10:38AM 31.7461 -84.2314 318° Northwest 167 192 7,900  Level Jacksonville Center
10:40AM 31.8333 -84.3167 320° Northwest 168 193 7,900  Level Atlanta TRACON
10:41AM 31.8667 -84.3500 320° Northwest 169 194 7,900  Level Atlanta TRACON
10:42AM 31.9000 -84.3833 320° Northwest 166 191 7,900  Level Atlanta TRACON
10:43AM 31.9333 -84.4333 308° West 167 192 7,900  Level Atlanta TRACON
10:44AM 31.9667 -84.4667 320° Northwest 165 190 7,900  Level Atlanta TRACON
10:45AM 32.0000 -84.5000 320° Northwest 164 189 7,900  Level Atlanta TRACON
10:46AM 32.0333 -84.5333 320° Northwest 164 189 7,900  Level Atlanta TRACON
10:48AM 32.0667 -84.5833 308° West 164 189 7,900  Level Atlanta TRACON
10:48AM 32.1000 -84.6167 320° Northwest 166 191 7,900 60 Level Atlanta TRACON
10:49AM 32.1333 -84.6500 320° Northwest 163 188 8,100  Climbing Atlanta TRACON
10:50AM 32.1667 -84.6833 320° Northwest 165 190 8,000 -60 Descending Atlanta TRACON
10:51AM 32.2167 -84.7167 331° Northwest 168 193 8,000  Level Atlanta TRACON
10:53AM 32.2500 -84.7333 337° Northwest 166 191 8,000  Level Atlanta TRACON
10:54AM 32.3000 -84.7667 331° Northwest 164 189 8,000  Level Atlanta TRACON
10:55AM 32.3333 -84.8000 320° Northwest 163 188 8,000  Level Atlanta TRACON
10:56AM 32.3667 -84.8333 320° Northwest 165 190 8,000  Level Atlanta TRACON
10:57AM 32.4000 -84.8667 320° Northwest 163 188 8,000  Level Atlanta TRACON
10:58AM 32.4500 -84.9000 331° Northwest 160 184 8,000  Level Atlanta TRACON
10:59AM 32.4833 -84.9167 337° Northwest 152 175 8,000  Level Atlanta TRACON
11:00AM 32.5167 -84.9500 320° Northwest 164 189 8,000  Level Atlanta TRACON
11:01AM 32.5500 -84.9833 320° Northwest 144 166 8,000  Level Atlanta TRACON
11:02AM 32.6000 -85.0167 331° Northwest 160 184 8,000  Level Atlanta TRACON
11:03AM 32.6333 -85.0333 337° Northwest 162 186 8,000  Level Atlanta TRACON
11:04AM 32.6667 -85.0667 320° Northwest 163 188 8,000  Level Atlanta TRACON
11:05AM 32.7167 -85.1000 331° Northwest 164 189 8,000  Level Atlanta TRACON
11:06AM 32.7500 -85.1333 320° Northwest 163 188 8,000  Level Atlanta TRACON
11:07AM 32.7833 -85.1667 320° Northwest 163 188 8,000  Level Atlanta TRACON
11:08AM 32.8167 -85.1833 337° Northwest 163 188 8,000  Level Atlanta TRACON
11:09AM 32.8667 -85.2167 331° Northwest 163 188 8,000  Level Atlanta TRACON
11:10AM 32.9000 -85.2500 320° Northwest 163 188 8,000  Level Atlanta TRACON
11:11AM 32.9333 -85.2667 337° Northwest 163 188 8,000  Level Atlanta TRACON
11:12AM 32.9758 -85.3042 323° Northwest 168 193 8,100  Climbing Atlanta Center
11:13AM 33.0111 -85.3319 327° Northwest 162 186 8,100  Level Atlanta Center
11:14AM 33.0503 -85.3622 327° Northwest 162 186 8,100 -60 Level Atlanta Center
11:15AM 33.0917 -85.3975 324° Northwest 172 198 8,000 -60 Descending Atlanta Center
11:16AM 33.1331 -85.4306 326° Northwest 167 192 8,000  Level Atlanta Center
11:17AM 33.1703 -85.4583 328° Northwest 167 192 8,000  Level Atlanta Center
11:18AM 33.1994 -85.4786 330° Northwest 158 182 8,100  Climbing Atlanta Center
11:19AM 33.2386 -85.5092 327° Northwest 158 182 8,100  Level Atlanta Center
11:20AM 33.2778 -85.5397 327° Northwest 158 182 8,100 -60 Level Atlanta Center
11:21AM 33.3233 -85.5778 325° Northwest 170 196 8,000 -120 Descending Atlanta Center
11:22AM 33.3628 -85.6083 327° Northwest 175 201 7,900 -300 Descending Atlanta Center
11:23AM 33.4039 -85.6414 326° Northwest 175 201 7,400 -480 Descending Atlanta Center
11:24AM 33.4392 -85.6694 326° Northwest 175 201 7,000 -480 Descending Atlanta Center
11:25AM 33.4783 -85.6975 329° Northwest 175 201 6,500 -480 Descending Atlanta Center
11:26AM 33.5156 -85.7281 326° Northwest 175 201 6,100 -300 Descending Atlanta Center
11:27AM 33.5589 -85.7589 329° Northwest 170 196 6,000 -60 Descending Atlanta Center
11:28AM 33.5919 -85.7894 322° Northwest 165 190 6,000  Level Atlanta Center
11:29AM 33.6311 -85.8203 327° Northwest 165 190 6,100  Climbing Atlanta Center
11:30AM 33.6767 -85.8536 329° Northwest 165 190 6,100  Level Atlanta Center
11:31AM 33.7117 -85.8819 326° Northwest 165 190 6,100  Level Atlanta Center
11:32AM 33.7486 -85.9125 325° Northwest 165 190 6,100  Level Atlanta Center
11:32AM 33.7692 -85.9306 324° Northwest 162 186 6,100  Level Atlanta Center
11:33AM 33.7858 -85.9408 333° Northwest 158 182 6,100 -300 Level Atlanta Center
11:33AM 33.8147 -85.9689 321° Northwest 164 189 5,800 -420 Descending Atlanta Center
11:34AM 33.8250 -85.9717 347° North 164 189 5,700 -180 Descending Atlanta Center
11:35AM 33.8600 -86.0025 324° Northwest 164 189 5,600 1,140 Descending Atlanta Center
11:36AM 33.8992 -86.0311 329° Northwest 164 189 8,000 1,200 Climbing Atlanta Center
11:37AM 33.9342 -86.0569 329° Northwest 164 189 8,000  Level Atlanta Center
11:38AM 33.9425 -86.0619 334° Northwest 164 189 8,000  Level Atlanta Center
11:40AM 33.9425 -86.0619 270° West 164 189 8,000  Level Atlanta Center
11:42AM 33.9425 -86.0619 270° West 164 189 8,000  Level Atlanta Center